sensor_id;sensor_type;location;lat;lon;timestamp;P1;durP1;ratioP1;P2;durP2;ratioP2
13797;SDS011;6970;51.340;3.240;2022-09-03T00:01:22;8.00;;;7.33;;
13797;SDS011;6970;51.340;3.240;2022-09-03T00:04:04;7.93;;;7.13;;
13797;SDS011;6970;51.340;3.240;2022-09-03T00:06:50;6.73;;;6.33;;
13797;SDS011;6970;51.340;3.240;2022-09-03T00:09:38;8.23;;;7.30;;
13797;SDS011;6970;51.340;3.240;2022-09-03T00:12:12;7.90;;;7.30;;
13797;SDS011;6970;51.340;3.240;2022-09-03T00:15:12;6.43;;;5.83;;
13797;SDS011;6970;51.340;3.240;2022-09-03T00:17:49;6.17;;;5.60;;
13797;SDS011;6970;51.340;3.240;2022-09-03T00:20:26;5.90;;;5.33;;
13797;SDS011;6970;51.340;3.240;2022-09-03T00:22:58;5.67;;;4.93;;
13797;SDS011;6970;51.340;3.240;2022-09-03T00:28:02;4.77;;;4.37;;
13797;SDS011;6970;51.340;3.240;2022-09-03T00:30:38;5.13;;;4.73;;
13797;SDS011;6970;51.340;3.240;2022-09-03T00:33:08;6.93;;;5.63;;
13797;SDS011;6970;51.340;3.240;2022-09-03T00:35:41;4.77;;;4.37;;
13797;SDS011;6970;51.340;3.240;2022-09-03T00:38:32;5.33;;;4.53;;
13797;SDS011;6970;51.340;3.240;2022-09-03T00:46:04;5.10;;;4.70;;
13797;SDS011;6970;51.340;3.240;2022-09-03T00:49:22;4.73;;;4.30;;
13797;SDS011;6970;51.340;3.240;2022-09-03T00:57:27;5.10;;;3.37;;
13797;SDS011;6970;51.340;3.240;2022-09-03T01:00:05;5.47;;;3.57;;
13797;SDS011;6970;51.340;3.240;2022-09-03T01:02:38;4.07;;;3.67;;
13797;SDS011;6970;51.340;3.240;2022-09-03T01:22:19;6.50;;;6.00;;
13797;SDS011;6970;51.340;3.240;2022-09-03T01:30:42;6.10;;;5.60;;
13797;SDS011;6970;51.340;3.240;2022-09-03T01:33:34;8.00;;;7.40;;
13797;SDS011;6970;51.340;3.240;2022-09-03T01:59:08;11.03;;;10.17;;
13797;SDS011;6970;51.340;3.240;2022-09-03T02:02:08;10.03;;;9.30;;
13797;SDS011;6970;51.340;3.240;2022-09-03T02:04:38;11.47;;;10.57;;
13797;SDS011;6970;51.340;3.240;2022-09-03T02:07:05;11.90;;;10.90;;
13797;SDS011;6970;51.340;3.240;2022-09-03T02:09:32;10.73;;;9.77;;
13797;SDS011;6970;51.340;3.240;2022-09-03T02:12:05;10.87;;;9.87;;
13797;SDS011;6970;51.340;3.240;2022-09-03T02:14:36;12.80;;;11.87;;
13797;SDS011;6970;51.340;3.240;2022-09-03T02:17:03;13.10;;;12.10;;
13797;SDS011;6970;51.340;3.240;2022-09-03T02:19:32;13.27;;;12.27;;
13797;SDS011;6970;51.340;3.240;2022-09-03T02:22:02;13.43;;;12.27;;
13797;SDS011;6970;51.340;3.240;2022-09-03T02:24:31;14.43;;;13.33;;
13797;SDS011;6970;51.340;3.240;2022-09-03T02:26:58;16.80;;;15.17;;
13797;SDS011;6970;51.340;3.240;2022-09-03T02:29:25;17.70;;;15.93;;
13797;SDS011;6970;51.340;3.240;2022-09-03T02:31:53;16.97;;;15.30;;
13797;SDS011;6970;51.340;3.240;2022-09-03T02:34:21;15.80;;;14.30;;
13797;SDS011;6970;51.340;3.240;2022-09-03T02:36:48;15.93;;;14.63;;
13797;SDS011;6970;51.340;3.240;2022-09-03T02:39:15;15.47;;;14.37;;
13797;SDS011;6970;51.340;3.240;2022-09-03T02:41:42;19.17;;;17.40;;
13797;SDS011;6970;51.340;3.240;2022-09-03T02:44:29;16.73;;;15.30;;
13797;SDS011;6970;51.340;3.240;2022-09-03T02:46:59;15.90;;;14.60;;
13797;SDS011;6970;51.340;3.240;2022-09-03T02:49:31;15.67;;;14.37;;
13797;SDS011;6970;51.340;3.240;2022-09-03T02:52:02;16.20;;;14.90;;
13797;SDS011;6970;51.340;3.240;2022-09-03T02:54:33;17.73;;;16.10;;
13797;SDS011;6970;51.340;3.240;2022-09-03T02:57:06;18.17;;;16.67;;
13797;SDS011;6970;51.340;3.240;2022-09-03T02:59:34;20.17;;;18.43;;
13797;SDS011;6970;51.340;3.240;2022-09-03T03:02:02;19.20;;;17.50;;
13797;SDS011;6970;51.340;3.240;2022-09-03T03:04:29;17.77;;;16.37;;
13797;SDS011;6970;51.340;3.240;2022-09-03T03:06:58;24.17;;;21.70;;
13797;SDS011;6970;51.340;3.240;2022-09-03T03:09:25;24.03;;;21.83;;
13797;SDS011;6970;51.340;3.240;2022-09-03T03:11:52;27.13;;;24.57;;
13797;SDS011;6970;51.340;3.240;2022-09-03T03:14:21;25.23;;;22.93;;
13797;SDS011;6970;51.340;3.240;2022-09-03T03:16:48;28.53;;;25.73;;
13797;SDS011;6970;51.340;3.240;2022-09-03T03:19:17;27.87;;;24.93;;
13797;SDS011;6970;51.340;3.240;2022-09-03T03:21:44;24.50;;;22.13;;
13797;SDS011;6970;51.340;3.240;2022-09-03T03:24:11;24.57;;;22.17;;
13797;SDS011;6970;51.340;3.240;2022-09-03T03:26:38;25.97;;;23.27;;
13797;SDS011;6970;51.340;3.240;2022-09-03T03:29:06;28.33;;;25.43;;
13797;SDS011;6970;51.340;3.240;2022-09-03T03:31:33;27.07;;;24.47;;
13797;SDS011;6970;51.340;3.240;2022-09-03T03:34:00;24.90;;;22.63;;
13797;SDS011;6970;51.340;3.240;2022-09-03T03:36:29;23.07;;;20.97;;
13797;SDS011;6970;51.340;3.240;2022-09-03T03:38:58;24.33;;;22.13;;
13797;SDS011;6970;51.340;3.240;2022-09-03T03:41:26;23.40;;;21.17;;
13797;SDS011;6970;51.340;3.240;2022-09-03T03:43:57;24.43;;;22.13;;
13797;SDS011;6970;51.340;3.240;2022-09-03T03:46:31;25.47;;;22.73;;
13797;SDS011;6970;51.340;3.240;2022-09-03T03:49:00;22.17;;;20.17;;
13797;SDS011;6970;51.340;3.240;2022-09-03T03:51:27;21.97;;;20.07;;
13797;SDS011;6970;51.340;3.240;2022-09-03T03:53:56;24.23;;;21.83;;
13797;SDS011;6970;51.340;3.240;2022-09-03T03:56:29;23.27;;;20.77;;
13797;SDS011;6970;51.340;3.240;2022-09-03T03:58:57;21.83;;;19.83;;
13797;SDS011;6970;51.340;3.240;2022-09-03T04:01:25;19.60;;;17.90;;
13797;SDS011;6970;51.340;3.240;2022-09-03T04:03:56;21.70;;;19.53;;
13797;SDS011;6970;51.340;3.240;2022-09-03T04:06:25;22.43;;;20.30;;
13797;SDS011;6970;51.340;3.240;2022-09-03T04:08:52;21.63;;;19.73;;
13797;SDS011;6970;51.340;3.240;2022-09-03T04:11:20;20.63;;;18.80;;
13797;SDS011;6970;51.340;3.240;2022-09-03T04:13:48;22.03;;;20.00;;
13797;SDS011;6970;51.340;3.240;2022-09-03T04:16:17;22.50;;;20.33;;
13797;SDS011;6970;51.340;3.240;2022-09-03T04:18:49;20.73;;;18.93;;
13797;SDS011;6970;51.340;3.240;2022-09-03T04:21:21;23.50;;;21.30;;
13797;SDS011;6970;51.340;3.240;2022-09-03T04:23:54;22.80;;;20.63;;
13797;SDS011;6970;51.340;3.240;2022-09-03T04:26:23;24.67;;;22.30;;
13797;SDS011;6970;51.340;3.240;2022-09-03T04:28:56;23.67;;;21.50;;
13797;SDS011;6970;51.340;3.240;2022-09-03T04:31:29;23.03;;;20.90;;
13797;SDS011;6970;51.340;3.240;2022-09-03T04:33:57;22.97;;;20.87;;
13797;SDS011;6970;51.340;3.240;2022-09-03T04:36:25;24.40;;;22.10;;
13797;SDS011;6970;51.340;3.240;2022-09-03T04:38:54;23.47;;;21.37;;
13797;SDS011;6970;51.340;3.240;2022-09-03T04:41:24;21.40;;;19.53;;
13797;SDS011;6970;51.340;3.240;2022-09-03T04:43:54;21.13;;;19.23;;
13797;SDS011;6970;51.340;3.240;2022-09-03T04:46:23;23.57;;;21.43;;
13797;SDS011;6970;51.340;3.240;2022-09-03T04:48:52;23.83;;;21.63;;
13797;SDS011;6970;51.340;3.240;2022-09-03T04:51:24;21.40;;;19.43;;
13797;SDS011;6970;51.340;3.240;2022-09-03T04:53:57;22.10;;;20.10;;
13797;SDS011;6970;51.340;3.240;2022-09-03T04:56:30;21.10;;;18.83;;
13797;SDS011;6970;51.340;3.240;2022-09-03T04:58:59;20.13;;;18.33;;
13797;SDS011;6970;51.340;3.240;2022-09-03T05:01:29;20.70;;;18.70;;
13797;SDS011;6970;51.340;3.240;2022-09-03T05:03:58;21.30;;;19.50;;
13797;SDS011;6970;51.340;3.240;2022-09-03T05:06:27;21.60;;;19.50;;
13797;SDS011;6970;51.340;3.240;2022-09-03T05:08:55;21.10;;;19.17;;
13797;SDS011;6970;51.340;3.240;2022-09-03T05:11:22;22.17;;;20.17;;
13797;SDS011;6970;51.340;3.240;2022-09-03T05:13:51;23.03;;;20.80;;
13797;SDS011;6970;51.340;3.240;2022-09-03T05:16:21;21.70;;;19.67;;
13797;SDS011;6970;51.340;3.240;2022-09-03T05:18:53;24.50;;;22.20;;
13797;SDS011;6970;51.340;3.240;2022-09-03T05:21:22;23.57;;;21.10;;
13797;SDS011;6970;51.340;3.240;2022-09-03T05:23:51;23.57;;;21.27;;
13797;SDS011;6970;51.340;3.240;2022-09-03T05:26:20;22.80;;;20.50;;
13797;SDS011;6970;51.340;3.240;2022-09-03T05:28:52;21.77;;;19.50;;
13797;SDS011;6970;51.340;3.240;2022-09-03T05:31:23;23.67;;;21.57;;
13797;SDS011;6970;51.340;3.240;2022-09-03T05:33:55;21.80;;;19.63;;
13797;SDS011;6970;51.340;3.240;2022-09-03T05:36:25;22.73;;;20.70;;
13797;SDS011;6970;51.340;3.240;2022-09-03T05:38:54;23.07;;;20.63;;
13797;SDS011;6970;51.340;3.240;2022-09-03T05:41:24;23.57;;;21.37;;
13797;SDS011;6970;51.340;3.240;2022-09-03T05:43:51;20.97;;;19.10;;
13797;SDS011;6970;51.340;3.240;2022-09-03T05:46:26;23.53;;;21.23;;
13797;SDS011;6970;51.340;3.240;2022-09-03T05:48:59;21.87;;;19.57;;
13797;SDS011;6970;51.340;3.240;2022-09-03T05:51:27;23.80;;;21.50;;
13797;SDS011;6970;51.340;3.240;2022-09-03T05:53:56;21.93;;;19.80;;
13797;SDS011;6970;51.340;3.240;2022-09-03T05:56:24;21.40;;;19.30;;
13797;SDS011;6970;51.340;3.240;2022-09-03T05:58:53;22.97;;;20.63;;
13797;SDS011;6970;51.340;3.240;2022-09-03T06:01:23;23.77;;;21.37;;
13797;SDS011;6970;51.340;3.240;2022-09-03T06:03:53;23.93;;;21.40;;
13797;SDS011;6970;51.340;3.240;2022-09-03T06:06:22;22.73;;;20.53;;
13797;SDS011;6970;51.340;3.240;2022-09-03T06:08:52;20.87;;;19.07;;
13797;SDS011;6970;51.340;3.240;2022-09-03T06:11:20;20.37;;;18.27;;
13797;SDS011;6970;51.340;3.240;2022-09-03T06:13:51;20.60;;;18.87;;
13797;SDS011;6970;51.340;3.240;2022-09-03T06:16:23;19.47;;;17.83;;
13797;SDS011;6970;51.340;3.240;2022-09-03T06:18:57;20.60;;;18.73;;
13797;SDS011;6970;51.340;3.240;2022-09-03T06:21:25;20.97;;;19.23;;
13797;SDS011;6970;51.340;3.240;2022-09-03T06:23:53;23.63;;;21.43;;
13797;SDS011;6970;51.340;3.240;2022-09-03T06:26:26;23.10;;;20.93;;
13797;SDS011;6970;51.340;3.240;2022-09-03T06:28:54;22.57;;;20.27;;
13797;SDS011;6970;51.340;3.240;2022-09-03T06:31:22;21.50;;;19.60;;
13797;SDS011;6970;51.340;3.240;2022-09-03T06:33:50;22.07;;;19.90;;
13797;SDS011;6970;51.340;3.240;2022-09-03T06:36:20;23.67;;;21.23;;
13797;SDS011;6970;51.340;3.240;2022-09-03T06:38:52;22.00;;;20.07;;
13797;SDS011;6970;51.340;3.240;2022-09-03T06:41:39;22.17;;;20.27;;
13797;SDS011;6970;51.340;3.240;2022-09-03T06:44:07;23.37;;;21.17;;
13797;SDS011;6970;51.340;3.240;2022-09-03T06:46:38;23.20;;;20.97;;
13797;SDS011;6970;51.340;3.240;2022-09-03T06:49:08;22.13;;;20.13;;
13797;SDS011;6970;51.340;3.240;2022-09-03T06:51:36;21.10;;;19.37;;
13797;SDS011;6970;51.340;3.240;2022-09-03T06:54:08;23.93;;;21.77;;
13797;SDS011;6970;51.340;3.240;2022-09-03T06:56:37;24.90;;;22.50;;
13797;SDS011;6970;51.340;3.240;2022-09-03T06:59:07;25.33;;;22.70;;
13797;SDS011;6970;51.340;3.240;2022-09-03T07:01:39;23.93;;;21.60;;
13797;SDS011;6970;51.340;3.240;2022-09-03T07:04:10;24.67;;;22.40;;
13797;SDS011;6970;51.340;3.240;2022-09-03T07:06:41;25.57;;;23.20;;
13797;SDS011;6970;51.340;3.240;2022-09-03T07:09:10;26.10;;;23.83;;
13797;SDS011;6970;51.340;3.240;2022-09-03T07:11:38;24.20;;;22.00;;
13797;SDS011;6970;51.340;3.240;2022-09-03T07:14:13;25.13;;;22.93;;
13797;SDS011;6970;51.340;3.240;2022-09-03T07:16:41;23.03;;;20.87;;
13797;SDS011;6970;51.340;3.240;2022-09-03T07:19:09;26.07;;;23.67;;
13797;SDS011;6970;51.340;3.240;2022-09-03T07:21:38;23.67;;;21.37;;
13797;SDS011;6970;51.340;3.240;2022-09-03T07:24:14;24.23;;;21.93;;
13797;SDS011;6970;51.340;3.240;2022-09-03T07:26:41;22.10;;;20.07;;
13797;SDS011;6970;51.340;3.240;2022-09-03T07:29:12;24.03;;;21.83;;
13797;SDS011;6970;51.340;3.240;2022-09-03T07:31:41;23.20;;;20.90;;
13797;SDS011;6970;51.340;3.240;2022-09-03T07:34:10;22.90;;;20.90;;
13797;SDS011;6970;51.340;3.240;2022-09-03T07:36:39;23.50;;;21.30;;
13797;SDS011;6970;51.340;3.240;2022-09-03T07:39:09;23.20;;;20.97;;
13797;SDS011;6970;51.340;3.240;2022-09-03T07:41:37;22.17;;;20.00;;
13797;SDS011;6970;51.340;3.240;2022-09-03T07:44:08;22.23;;;20.13;;
13797;SDS011;6970;51.340;3.240;2022-09-03T07:46:35;22.27;;;20.17;;
13797;SDS011;6970;51.340;3.240;2022-09-03T07:49:03;20.43;;;18.53;;
13797;SDS011;6970;51.340;3.240;2022-09-03T07:51:35;21.43;;;19.27;;
13797;SDS011;6970;51.340;3.240;2022-09-03T07:54:07;19.70;;;17.90;;
13797;SDS011;6970;51.340;3.240;2022-09-03T07:56:37;20.33;;;18.63;;
13797;SDS011;6970;51.340;3.240;2022-09-03T07:59:05;20.50;;;18.67;;
13797;SDS011;6970;51.340;3.240;2022-09-03T08:01:33;22.17;;;20.13;;
13797;SDS011;6970;51.340;3.240;2022-09-03T08:04:01;19.27;;;17.57;;
13797;SDS011;6970;51.340;3.240;2022-09-03T08:06:29;20.67;;;18.97;;
13797;SDS011;6970;51.340;3.240;2022-09-03T08:08:59;19.93;;;18.30;;
13797;SDS011;6970;51.340;3.240;2022-09-03T08:11:31;19.13;;;17.43;;
13797;SDS011;6970;51.340;3.240;2022-09-03T08:14:02;17.73;;;16.37;;
13797;SDS011;6970;51.340;3.240;2022-09-03T08:17:30;18.50;;;17.00;;
13797;SDS011;6970;51.340;3.240;2022-09-03T08:19:57;18.43;;;16.67;;
13797;SDS011;6970;51.340;3.240;2022-09-03T08:22:24;17.80;;;16.27;;
13797;SDS011;6970;51.340;3.240;2022-09-03T08:24:51;18.20;;;16.70;;
13797;SDS011;6970;51.340;3.240;2022-09-03T08:27:19;18.10;;;16.60;;
13797;SDS011;6970;51.340;3.240;2022-09-03T08:29:51;15.63;;;14.33;;
13797;SDS011;6970;51.340;3.240;2022-09-03T08:32:19;16.97;;;15.57;;
13797;SDS011;6970;51.340;3.240;2022-09-03T08:34:46;17.83;;;16.17;;
13797;SDS011;6970;51.340;3.240;2022-09-03T08:37:13;16.23;;;14.77;;
13797;SDS011;6970;51.340;3.240;2022-09-03T08:39:40;16.40;;;15.20;;
13797;SDS011;6970;51.340;3.240;2022-09-03T08:47:21;14.07;;;13.07;;
13797;SDS011;6970;51.340;3.240;2022-09-03T08:57:48;13.93;;;12.73;;
13797;SDS011;6970;51.340;3.240;2022-09-03T09:00:18;12.68;;;11.57;;
13797;SDS011;6970;51.340;3.240;2022-09-03T09:05:48;11.45;;;10.57;;
13797;SDS011;6970;51.340;3.240;2022-09-03T09:14:12;9.73;;;8.93;;
13797;SDS011;6970;51.340;3.240;2022-09-03T09:17:28;8.95;;;8.35;;
13797;SDS011;6970;51.340;3.240;2022-09-03T09:23:05;11.40;;;10.35;;
13797;SDS011;6970;51.340;3.240;2022-09-03T09:25:38;10.52;;;9.60;;
13797;SDS011;6970;51.340;3.240;2022-09-03T09:30:48;11.02;;;10.23;;
13797;SDS011;6970;51.340;3.240;2022-09-03T09:33:18;11.50;;;10.45;;
13797;SDS011;6970;51.340;3.240;2022-09-03T09:35:46;9.93;;;9.23;;
13797;SDS011;6970;51.340;3.240;2022-09-03T09:38:14;10.00;;;9.18;;
13797;SDS011;6970;51.340;3.240;2022-09-03T09:40:42;10.23;;;9.20;;
13797;SDS011;6970;51.340;3.240;2022-09-03T09:43:11;10.98;;;10.18;;
13797;SDS011;6970;51.340;3.240;2022-09-03T09:45:46;11.00;;;9.93;;
13797;SDS011;6970;51.340;3.240;2022-09-03T09:48:16;9.70;;;8.80;;
13797;SDS011;6970;51.340;3.240;2022-09-03T09:50:48;9.75;;;8.93;;
13797;SDS011;6970;51.340;3.240;2022-09-03T09:53:16;9.55;;;8.85;;
13797;SDS011;6970;51.340;3.240;2022-09-03T09:55:47;8.50;;;7.88;;
13797;SDS011;6970;51.340;3.240;2022-09-03T09:58:20;8.35;;;7.70;;
13797;SDS011;6970;51.340;3.240;2022-09-03T10:03:47;7.30;;;6.80;;
13797;SDS011;6970;51.340;3.240;2022-09-03T10:06:27;8.27;;;7.63;;
13797;SDS011;6970;51.340;3.240;2022-09-03T10:09:16;7.43;;;6.88;;
13797;SDS011;6970;51.340;3.240;2022-09-03T10:12:28;9.02;;;7.65;;
13797;SDS011;6970;51.340;3.240;2022-09-03T10:23:10;7.20;;;6.60;;
13797;SDS011;6970;51.340;3.240;2022-09-03T10:28:39;10.80;;;9.90;;
13797;SDS011;6970;51.340;3.240;2022-09-03T10:50:33;8.43;;;7.82;;
13797;SDS011;6970;51.340;3.240;2022-09-03T10:53:20;8.10;;;7.50;;
13797;SDS011;6970;51.340;3.240;2022-09-03T11:06:56;10.73;;;9.75;;
13797;SDS011;6970;51.340;3.240;2022-09-03T11:12:24;8.85;;;7.07;;
13797;SDS011;6970;51.340;3.240;2022-09-03T11:14:59;9.13;;;8.38;;
13797;SDS011;6970;51.340;3.240;2022-09-03T11:17:44;8.40;;;7.55;;
13797;SDS011;6970;51.340;3.240;2022-09-03T11:20:20;7.68;;;7.15;;
13797;SDS011;6970;51.340;3.240;2022-09-03T11:22:52;8.52;;;7.72;;
13797;SDS011;6970;51.340;3.240;2022-09-03T11:25:24;8.77;;;8.18;;
13797;SDS011;6970;51.340;3.240;2022-09-03T11:28:19;8.32;;;7.65;;
13797;SDS011;6970;51.340;3.240;2022-09-03T11:31:04;9.18;;;8.48;;
13797;SDS011;6970;51.340;3.240;2022-09-03T11:34:04;7.55;;;6.97;;
13797;SDS011;6970;51.340;3.240;2022-09-03T11:36:31;6.40;;;5.80;;
13797;SDS011;6970;51.340;3.240;2022-09-03T11:39:11;6.32;;;5.82;;
13797;SDS011;6970;51.340;3.240;2022-09-03T11:41:43;7.07;;;6.47;;
13797;SDS011;6970;51.340;3.240;2022-09-03T11:44:23;7.57;;;6.97;;
13797;SDS011;6970;51.340;3.240;2022-09-03T11:46:56;8.90;;;8.20;;
13797;SDS011;6970;51.340;3.240;2022-09-03T11:49:28;8.30;;;7.60;;
13797;SDS011;6970;51.340;3.240;2022-09-03T11:52:00;7.70;;;6.72;;
13797;SDS011;6970;51.340;3.240;2022-09-03T11:54:41;9.00;;;8.25;;
13797;SDS011;6970;51.340;3.240;2022-09-03T11:57:13;9.02;;;8.23;;
13797;SDS011;6970;51.340;3.240;2022-09-03T11:59:47;9.30;;;8.50;;
13797;SDS011;6970;51.340;3.240;2022-09-03T12:02:23;7.97;;;7.38;;
13797;SDS011;6970;51.340;3.240;2022-09-03T12:18:22;8.30;;;7.70;;
13797;SDS011;6970;51.340;3.240;2022-09-03T12:23:26;8.20;;;7.57;;
13797;SDS011;6970;51.340;3.240;2022-09-03T12:26:24;7.95;;;7.32;;
13797;SDS011;6970;51.340;3.240;2022-09-03T12:28:54;8.00;;;7.30;;
13797;SDS011;6970;51.340;3.240;2022-09-03T12:31:27;8.35;;;7.65;;
13797;SDS011;6970;51.340;3.240;2022-09-03T12:34:00;10.32;;;8.07;;
13797;SDS011;6970;51.340;3.240;2022-09-03T12:36:40;8.60;;;7.90;;
13797;SDS011;6970;51.340;3.240;2022-09-03T12:39:15;7.00;;;6.30;;
13797;SDS011;6970;51.340;3.240;2022-09-03T12:42:11;7.13;;;6.63;;
13797;SDS011;6970;51.340;3.240;2022-09-03T12:44:49;6.68;;;6.07;;
13797;SDS011;6970;51.340;3.240;2022-09-03T12:47:17;8.20;;;6.95;;
13797;SDS011;6970;51.340;3.240;2022-09-03T12:50:14;5.63;;;5.22;;
13797;SDS011;6970;51.340;3.240;2022-09-03T12:55:53;11.20;;;10.13;;
13797;SDS011;6970;51.340;3.240;2022-09-03T12:58:34;13.77;;;12.63;;
13797;SDS011;6970;51.340;3.240;2022-09-03T13:01:14;15.57;;;14.32;;
13797;SDS011;6970;51.340;3.240;2022-09-03T13:03:48;10.07;;;9.20;;
13797;SDS011;6970;51.340;3.240;2022-09-03T13:06:24;11.27;;;10.43;;
13797;SDS011;6970;51.340;3.240;2022-09-03T13:09:03;17.63;;;16.08;;
13797;SDS011;6970;51.340;3.240;2022-09-03T13:11:33;24.13;;;21.75;;
13797;SDS011;6970;51.340;3.240;2022-09-03T13:22:01;10.20;;;9.30;;
13797;SDS011;6970;51.340;3.240;2022-09-03T13:25:12;6.82;;;6.15;;
13797;SDS011;6970;51.340;3.240;2022-09-03T13:36:09;7.07;;;6.45;;
13797;SDS011;6970;51.340;3.240;2022-09-03T13:38:49;9.52;;;8.82;;
13797;SDS011;6970;51.340;3.240;2022-09-03T13:41:24;7.13;;;6.63;;
13797;SDS011;6970;51.340;3.240;2022-09-03T13:50:28;7.32;;;6.57;;
13797;SDS011;6970;51.340;3.240;2022-09-03T14:00:46;8.73;;;7.93;;
13797;SDS011;6970;51.340;3.240;2022-09-03T14:09:05;6.15;;;5.65;;
13797;SDS011;6970;51.340;3.240;2022-09-03T14:11:58;7.25;;;6.70;;
13797;SDS011;6970;51.340;3.240;2022-09-03T14:25:26;9.70;;;8.80;;
13797;SDS011;6970;51.340;3.240;2022-09-03T14:27:54;15.35;;;13.93;;
13797;SDS011;6970;51.340;3.240;2022-09-03T14:44:43;13.30;;;12.15;;
13797;SDS011;6970;51.340;3.240;2022-09-03T14:50:10;11.90;;;10.98;;
13797;SDS011;6970;51.340;3.240;2022-09-03T14:52:57;11.77;;;10.90;;
13797;SDS011;6970;51.340;3.240;2022-09-03T14:58:50;11.90;;;11.00;;
13797;SDS011;6970;51.340;3.240;2022-09-03T15:01:28;12.15;;;10.73;;
13797;SDS011;6970;51.340;3.240;2022-09-03T15:14:41;13.40;;;12.25;;
13797;SDS011;6970;51.340;3.240;2022-09-03T15:26:16;12.50;;;11.50;;
13797;SDS011;6970;51.340;3.240;2022-09-03T15:31:32;13.85;;;12.65;;
13797;SDS011;6970;51.340;3.240;2022-09-03T15:37:01;14.40;;;13.25;;
13797;SDS011;6970;51.340;3.240;2022-09-03T15:39:37;14.30;;;13.27;;
13797;SDS011;6970;51.340;3.240;2022-09-03T15:42:13;13.00;;;12.00;;
13797;SDS011;6970;51.340;3.240;2022-09-03T15:44:50;13.38;;;12.23;;
13797;SDS011;6970;51.340;3.240;2022-09-03T15:56:00;11.40;;;10.27;;
13797;SDS011;6970;51.340;3.240;2022-09-03T15:58:40;9.90;;;9.13;;
13797;SDS011;6970;51.340;3.240;2022-09-03T16:12:44;9.80;;;8.90;;
13797;SDS011;6970;51.340;3.240;2022-09-03T16:15:35;9.75;;;8.80;;
13797;SDS011;6970;51.340;3.240;2022-09-03T16:21:07;12.10;;;10.98;;
13797;SDS011;6970;51.340;3.240;2022-09-03T16:23:48;13.05;;;12.05;;
13797;SDS011;6970;51.340;3.240;2022-09-03T16:26:28;11.13;;;10.05;;
13797;SDS011;6970;51.340;3.240;2022-09-03T16:34:51;11.65;;;10.60;;
13797;SDS011;6970;51.340;3.240;2022-09-03T16:51:43;10.20;;;9.30;;
13797;SDS011;6970;51.340;3.240;2022-09-03T16:54:22;9.88;;;9.02;;
13797;SDS011;6970;51.340;3.240;2022-09-03T16:57:27;9.40;;;8.50;;
13797;SDS011;6970;51.340;3.240;2022-09-03T17:00:20;9.30;;;8.50;;
13797;SDS011;6970;51.340;3.240;2022-09-03T17:02:51;14.38;;;9.35;;
13797;SDS011;6970;51.340;3.240;2022-09-03T17:11:35;14.73;;;9.65;;
13797;SDS011;6970;51.340;3.240;2022-09-03T17:17:31;8.60;;;7.90;;
13797;SDS011;6970;51.340;3.240;2022-09-03T17:28:45;10.40;;;9.17;;
13797;SDS011;6970;51.340;3.240;2022-09-03T17:31:59;9.35;;;8.55;;
13797;SDS011;6970;51.340;3.240;2022-09-03T17:50:54;9.73;;;8.83;;
13797;SDS011;6970;51.340;3.240;2022-09-03T17:54:09;8.40;;;7.80;;
13797;SDS011;6970;51.340;3.240;2022-09-03T17:56:22;8.82;;;8.10;;
13797;SDS011;6970;51.340;3.240;2022-09-03T17:59:01;7.70;;;7.05;;
13797;SDS011;6970;51.340;3.240;2022-09-03T18:01:36;9.85;;;9.05;;
13797;SDS011;6970;51.340;3.240;2022-09-03T18:04:31;9.57;;;8.77;;
13797;SDS011;6970;51.340;3.240;2022-09-03T18:09:47;9.53;;;8.63;;
13797;SDS011;6970;51.340;3.240;2022-09-03T18:12:31;9.10;;;8.30;;
13797;SDS011;6970;51.340;3.240;2022-09-03T18:17:38;9.52;;;8.60;;
13797;SDS011;6970;51.340;3.240;2022-09-03T18:20:12;9.13;;;8.43;;
13797;SDS011;6970;51.340;3.240;2022-09-03T18:23:04;8.20;;;7.60;;
13797;SDS011;6970;51.340;3.240;2022-09-03T18:25:56;11.67;;;10.80;;
13797;SDS011;6970;51.340;3.240;2022-09-03T18:28:49;8.83;;;8.23;;
13797;SDS011;6970;51.340;3.240;2022-09-03T18:31:43;10.23;;;9.53;;
13797;SDS011;6970;51.340;3.240;2022-09-03T18:34:30;9.63;;;8.93;;
13797;SDS011;6970;51.340;3.240;2022-09-03T18:37:21;10.47;;;9.43;;
13797;SDS011;6970;51.340;3.240;2022-09-03T18:40:11;10.33;;;9.37;;
13797;SDS011;6970;51.340;3.240;2022-09-03T18:49:42;9.87;;;9.17;;
13797;SDS011;6970;51.340;3.240;2022-09-03T18:52:36;10.87;;;9.77;;
13797;SDS011;6970;51.340;3.240;2022-09-03T19:01:38;11.27;;;10.43;;
13797;SDS011;6970;51.340;3.240;2022-09-03T19:07:29;10.17;;;9.37;;
13797;SDS011;6970;51.340;3.240;2022-09-03T19:10:27;9.23;;;8.43;;
13797;SDS011;6970;51.340;3.240;2022-09-03T19:13:39;10.20;;;9.30;;
13797;SDS011;6970;51.340;3.240;2022-09-03T19:22:29;9.30;;;8.50;;
13797;SDS011;6970;51.340;3.240;2022-09-03T19:25:27;8.73;;;8.03;;
13797;SDS011;6970;51.340;3.240;2022-09-03T19:31:06;10.10;;;9.30;;
13797;SDS011;6970;51.340;3.240;2022-09-03T19:37:18;11.03;;;10.27;;
13797;SDS011;6970;51.340;3.240;2022-09-03T19:40:21;10.63;;;9.83;;
13797;SDS011;6970;51.340;3.240;2022-09-03T19:46:50;10.90;;;9.97;;
13797;SDS011;6970;51.340;3.240;2022-09-03T19:55:40;23.37;;;21.27;;
13797;SDS011;6970;51.340;3.240;2022-09-03T19:58:33;35.23;;;29.77;;
13797;SDS011;6970;51.340;3.240;2022-09-03T20:01:24;36.80;;;33.07;;
13797;SDS011;6970;51.340;3.240;2022-09-03T20:04:18;36.90;;;33.03;;
13797;SDS011;6970;51.340;3.240;2022-09-03T20:07:08;38.20;;;34.30;;
13797;SDS011;6970;51.340;3.240;2022-09-03T20:09:55;30.37;;;27.57;;
13797;SDS011;6970;51.340;3.240;2022-09-03T20:12:46;29.17;;;26.47;;
13797;SDS011;6970;51.340;3.240;2022-09-03T20:30:06;28.00;;;25.27;;
13797;SDS011;6970;51.340;3.240;2022-09-03T20:47:01;33.30;;;30.10;;
13797;SDS011;6970;51.340;3.240;2022-09-03T20:53:22;32.87;;;29.57;;
13797;SDS011;6970;51.340;3.240;2022-09-03T20:55:49;36.13;;;32.33;;
13797;SDS011;6970;51.340;3.240;2022-09-03T21:01:04;28.90;;;26.17;;
13797;SDS011;6970;51.340;3.240;2022-09-03T21:08:59;28.00;;;25.00;;
13797;SDS011;6970;51.340;3.240;2022-09-03T21:14:57;24.37;;;22.00;;
13797;SDS011;6970;51.340;3.240;2022-09-03T21:17:39;24.30;;;22.10;;
13797;SDS011;6970;51.340;3.240;2022-09-03T21:20:43;21.73;;;19.73;;
13797;SDS011;6970;51.340;3.240;2022-09-03T21:26:32;21.63;;;19.53;;
13797;SDS011;6970;51.340;3.240;2022-09-03T21:31:35;17.40;;;15.80;;
13797;SDS011;6970;51.340;3.240;2022-09-03T21:34:11;19.17;;;17.47;;
13797;SDS011;6970;51.340;3.240;2022-09-03T21:36:44;17.03;;;15.73;;
13797;SDS011;6970;51.340;3.240;2022-09-03T21:39:32;18.50;;;16.97;;
13797;SDS011;6970;51.340;3.240;2022-09-03T21:42:14;15.50;;;14.40;;
13797;SDS011;6970;51.340;3.240;2022-09-03T21:45:33;17.03;;;15.53;;
13797;SDS011;6970;51.340;3.240;2022-09-03T21:47:39;15.60;;;14.20;;
13797;SDS011;6970;51.340;3.240;2022-09-03T21:50:11;19.23;;;17.57;;
13797;SDS011;6970;51.340;3.240;2022-09-03T21:52:54;16.67;;;15.37;;
13797;SDS011;6970;51.340;3.240;2022-09-03T21:58:01;17.73;;;16.33;;
13797;SDS011;6970;51.340;3.240;2022-09-03T22:00:30;17.93;;;16.47;;
13797;SDS011;6970;51.340;3.240;2022-09-03T22:02:59;20.73;;;18.93;;
13797;SDS011;6970;51.340;3.240;2022-09-03T22:05:27;19.60;;;17.97;;
13797;SDS011;6970;51.340;3.240;2022-09-03T22:08:50;18.53;;;17.03;;
13797;SDS011;6970;51.340;3.240;2022-09-03T22:13:43;17.57;;;16.10;;
13797;SDS011;6970;51.340;3.240;2022-09-03T22:16:34;16.20;;;14.77;;
13797;SDS011;6970;51.340;3.240;2022-09-03T22:19:30;16.47;;;15.23;;
13797;SDS011;6970;51.340;3.240;2022-09-03T22:22:03;16.87;;;15.37;;
13797;SDS011;6970;51.340;3.240;2022-09-03T22:43:40;17.37;;;15.73;;
13797;SDS011;6970;51.340;3.240;2022-09-03T22:46:11;19.37;;;17.67;;
13797;SDS011;6970;51.340;3.240;2022-09-03T22:51:13;15.47;;;14.27;;
13797;SDS011;6970;51.340;3.240;2022-09-03T22:56:23;16.13;;;14.83;;
13797;SDS011;6970;51.340;3.240;2022-09-03T23:01:59;13.53;;;12.53;;